sensor_id;sensor_type;location;lat;lon;timestamp;temperature;humidity
21544;DHT22;10933;50.754;11.508;2022-07-29T00:00:03;16.00;99.90
21544;DHT22;10933;50.754;11.508;2022-07-29T00:02:31;16.00;99.90
21544;DHT22;10933;50.754;11.508;2022-07-29T00:04:57;16.10;99.90
21544;DHT22;10933;50.754;11.508;2022-07-29T00:07:23;16.00;99.90
21544;DHT22;10933;50.754;11.508;2022-07-29T00:09:50;16.20;99.90
21544;DHT22;10933;50.754;11.508;2022-07-29T00:12:16;16.20;99.90
21544;DHT22;10933;50.754;11.508;2022-07-29T00:14:42;16.00;99.90
21544;DHT22;10933;50.754;11.508;2022-07-29T00:17:08;15.90;99.90
21544;DHT22;10933;50.754;11.508;2022-07-29T00:19:34;16.00;99.90
21544;DHT22;10933;50.754;11.508;2022-07-29T00:22:00;16.10;99.90
21544;DHT22;10933;50.754;11.508;2022-07-29T00:24:26;17.00;99.90
21544;DHT22;10933;50.754;11.508;2022-07-29T00:26:52;15.60;99.90
21544;DHT22;10933;50.754;11.508;2022-07-29T00:29:18;15.80;99.90
21544;DHT22;10933;50.754;11.508;2022-07-29T00:31:44;16.70;99.90
21544;DHT22;10933;50.754;11.508;2022-07-29T00:34:10;15.90;99.90
21544;DHT22;10933;50.754;11.508;2022-07-29T00:36:55;15.90;99.90
21544;DHT22;10933;50.754;11.508;2022-07-29T00:39:21;16.00;99.90
21544;DHT22;10933;50.754;11.508;2022-07-29T00:41:47;16.00;99.90
21544;DHT22;10933;50.754;11.508;2022-07-29T00:44:12;15.90;99.90
21544;DHT22;10933;50.754;11.508;2022-07-29T00:46:38;15.90;99.90
21544;DHT22;10933;50.754;11.508;2022-07-29T00:49:04;15.70;99.90
21544;DHT22;10933;50.754;11.508;2022-07-29T00:51:30;15.60;99.90
21544;DHT22;10933;50.754;11.508;2022-07-29T00:53:57;15.40;99.90
21544;DHT22;10933;50.754;11.508;2022-07-29T00:56:22;15.20;99.90
21544;DHT22;10933;50.754;11.508;2022-07-29T00:58:49;15.10;99.90
21544;DHT22;10933;50.754;11.508;2022-07-29T01:01:16;15.10;99.90
21544;DHT22;10933;50.754;11.508;2022-07-29T01:03:41;16.40;99.90
21544;DHT22;10933;50.754;11.508;2022-07-29T01:06:08;15.10;99.90
21544;DHT22;10933;50.754;11.508;2022-07-29T01:08:35;15.10;99.90
21544;DHT22;10933;50.754;11.508;2022-07-29T01:11:02;17.40;99.90
21544;DHT22;10933;50.754;11.508;2022-07-29T01:13:29;15.40;99.90
21544;DHT22;10933;50.754;11.508;2022-07-29T01:16:01;15.40;99.90
21544;DHT22;10933;50.754;11.508;2022-07-29T01:18:34;15.40;99.90
21544;DHT22;10933;50.754;11.508;2022-07-29T01:29:37;15.50;99.90
21544;DHT22;10933;50.754;11.508;2022-07-29T01:32:18;15.20;99.90
21544;DHT22;10933;50.754;11.508;2022-07-29T01:34:52;15.20;99.90
21544;DHT22;10933;50.754;11.508;2022-07-29T01:40:11;14.90;99.90
21544;DHT22;10933;50.754;11.508;2022-07-29T01:42:44;15.10;99.90
21544;DHT22;10933;50.754;11.508;2022-07-29T01:45:48;15.10;99.90
21544;DHT22;10933;50.754;11.508;2022-07-29T01:51:24;14.80;99.90
21544;DHT22;10933;50.754;11.508;2022-07-29T01:54:02;14.70;99.90
21544;DHT22;10933;50.754;11.508;2022-07-29T01:56:32;14.80;99.90
21544;DHT22;10933;50.754;11.508;2022-07-29T01:59:03;14.90;99.90
21544;DHT22;10933;50.754;11.508;2022-07-29T02:01:33;14.90;99.90
21544;DHT22;10933;50.754;11.508;2022-07-29T02:04:06;15.00;99.90
21544;DHT22;10933;50.754;11.508;2022-07-29T02:06:37;14.90;99.90
21544;DHT22;10933;50.754;11.508;2022-07-29T02:09:07;14.80;99.90
21544;DHT22;10933;50.754;11.508;2022-07-29T02:11:36;14.50;99.90
21544;DHT22;10933;50.754;11.508;2022-07-29T02:14:04;14.50;99.90
21544;DHT22;10933;50.754;11.508;2022-07-29T02:16:32;14.50;99.90
21544;DHT22;10933;50.754;11.508;2022-07-29T02:19:02;14.50;99.90
21544;DHT22;10933;50.754;11.508;2022-07-29T02:21:32;14.50;99.90
21544;DHT22;10933;50.754;11.508;2022-07-29T02:24:01;14.40;99.90
21544;DHT22;10933;50.754;11.508;2022-07-29T02:26:29;16.40;99.90
21544;DHT22;10933;50.754;11.508;2022-07-29T02:28:59;14.40;99.90
21544;DHT22;10933;50.754;11.508;2022-07-29T02:31:33;14.70;99.90
21544;DHT22;10933;50.754;11.508;2022-07-29T02:34:03;14.60;99.90
21544;DHT22;10933;50.754;11.508;2022-07-29T02:36:33;14.70;99.90
21544;DHT22;10933;50.754;11.508;2022-07-29T02:39:01;14.60;99.90
21544;DHT22;10933;50.754;11.508;2022-07-29T02:41:50;14.60;99.90
21544;DHT22;10933;50.754;11.508;2022-07-29T02:44:24;14.60;99.90
21544;DHT22;10933;50.754;11.508;2022-07-29T02:47:02;15.40;99.90
21544;DHT22;10933;50.754;11.508;2022-07-29T02:52:06;14.10;99.90
21544;DHT22;10933;50.754;11.508;2022-07-29T02:54:42;14.00;99.90
21544;DHT22;10933;50.754;11.508;2022-07-29T02:57:42;14.70;99.90
21544;DHT22;10933;50.754;11.508;2022-07-29T03:00:09;15.80;99.90
21544;DHT22;10933;50.754;11.508;2022-07-29T03:02:39;14.10;99.90
21544;DHT22;10933;50.754;11.508;2022-07-29T03:05:10;13.90;99.90
21544;DHT22;10933;50.754;11.508;2022-07-29T03:07:47;14.00;99.90
21544;DHT22;10933;50.754;11.508;2022-07-29T03:10:17;14.00;99.90
21544;DHT22;10933;50.754;11.508;2022-07-29T03:12:44;13.90;99.90
21544;DHT22;10933;50.754;11.508;2022-07-29T03:15:10;13.90;99.90
21544;DHT22;10933;50.754;11.508;2022-07-29T03:17:37;13.90;99.90
21544;DHT22;10933;50.754;11.508;2022-07-29T03:20:06;14.10;99.90
21544;DHT22;10933;50.754;11.508;2022-07-29T03:22:37;14.30;99.90
21544;DHT22;10933;50.754;11.508;2022-07-29T03:25:09;14.40;99.90
21544;DHT22;10933;50.754;11.508;2022-07-29T03:27:36;14.10;99.90
21544;DHT22;10933;50.754;11.508;2022-07-29T03:30:02;13.70;99.90
21544;DHT22;10933;50.754;11.508;2022-07-29T03:32:29;13.90;99.90
21544;DHT22;10933;50.754;11.508;2022-07-29T03:34:55;13.70;99.90
21544;DHT22;10933;50.754;11.508;2022-07-29T03:37:20;13.70;99.90
21544;DHT22;10933;50.754;11.508;2022-07-29T03:39:47;13.90;99.90
21544;DHT22;10933;50.754;11.508;2022-07-29T03:42:16;13.80;99.90
21544;DHT22;10933;50.754;11.508;2022-07-29T03:44:47;14.00;99.90
21544;DHT22;10933;50.754;11.508;2022-07-29T03:47:14;15.40;99.90
21544;DHT22;10933;50.754;11.508;2022-07-29T03:49:46;16.50;99.90
21544;DHT22;10933;50.754;11.508;2022-07-29T03:52:14;13.90;99.90
21544;DHT22;10933;50.754;11.508;2022-07-29T03:54:40;14.00;99.90
21544;DHT22;10933;50.754;11.508;2022-07-29T03:57:07;14.00;99.90
21544;DHT22;10933;50.754;11.508;2022-07-29T03:59:35;14.00;99.90
21544;DHT22;10933;50.754;11.508;2022-07-29T04:02:04;14.30;99.90
21544;DHT22;10933;50.754;11.508;2022-07-29T04:04:34;14.00;99.90
21544;DHT22;10933;50.754;11.508;2022-07-29T04:07:00;13.80;99.90
21544;DHT22;10933;50.754;11.508;2022-07-29T04:09:26;14.40;99.90
21544;DHT22;10933;50.754;11.508;2022-07-29T04:11:52;13.90;99.90
21544;DHT22;10933;50.754;11.508;2022-07-29T04:14:18;14.00;99.90
21544;DHT22;10933;50.754;11.508;2022-07-29T04:16:45;14.00;99.90
21544;DHT22;10933;50.754;11.508;2022-07-29T04:19:11;14.00;99.90
21544;DHT22;10933;50.754;11.508;2022-07-29T04:21:39;14.00;99.90
21544;DHT22;10933;50.754;11.508;2022-07-29T04:24:05;13.90;99.90
21544;DHT22;10933;50.754;11.508;2022-07-29T04:26:33;13.90;99.90
21544;DHT22;10933;50.754;11.508;2022-07-29T04:29:00;14.20;99.90
21544;DHT22;10933;50.754;11.508;2022-07-29T04:31:26;13.90;99.90
21544;DHT22;10933;50.754;11.508;2022-07-29T04:33:52;14.10;99.90
21544;DHT22;10933;50.754;11.508;2022-07-29T04:36:18;14.10;99.90
21544;DHT22;10933;50.754;11.508;2022-07-29T04:38:44;14.30;99.90
21544;DHT22;10933;50.754;11.508;2022-07-29T04:41:09;14.20;99.90
21544;DHT22;10933;50.754;11.508;2022-07-29T04:43:35;14.20;99.90
21544;DHT22;10933;50.754;11.508;2022-07-29T04:46:02;14.30;99.90
21544;DHT22;10933;50.754;11.508;2022-07-29T04:48:29;14.30;99.90
21544;DHT22;10933;50.754;11.508;2022-07-29T04:50:55;14.30;99.90
21544;DHT22;10933;50.754;11.508;2022-07-29T04:53:22;16.60;99.90
21544;DHT22;10933;50.754;11.508;2022-07-29T04:55:47;14.40;99.90
21544;DHT22;10933;50.754;11.508;2022-07-29T04:58:13;14.60;99.90
21544;DHT22;10933;50.754;11.508;2022-07-29T05:00:40;14.60;99.90
21544;DHT22;10933;50.754;11.508;2022-07-29T05:03:05;14.60;99.90
21544;DHT22;10933;50.754;11.508;2022-07-29T05:05:31;14.70;99.90
21544;DHT22;10933;50.754;11.508;2022-07-29T05:07:57;15.00;99.90
21544;DHT22;10933;50.754;11.508;2022-07-29T05:10:23;15.30;99.90
21544;DHT22;10933;50.754;11.508;2022-07-29T05:12:49;15.30;99.90
21544;DHT22;10933;50.754;11.508;2022-07-29T05:15:14;15.20;99.90
21544;DHT22;10933;50.754;11.508;2022-07-29T05:17:40;15.20;99.90
21544;DHT22;10933;50.754;11.508;2022-07-29T05:20:06;15.30;99.90
21544;DHT22;10933;50.754;11.508;2022-07-29T05:22:32;15.40;99.90
21544;DHT22;10933;50.754;11.508;2022-07-29T05:24:58;15.50;99.90
21544;DHT22;10933;50.754;11.508;2022-07-29T05:27:24;17.30;99.90
21544;DHT22;10933;50.754;11.508;2022-07-29T05:29:50;15.30;99.90
21544;DHT22;10933;50.754;11.508;2022-07-29T05:32:16;15.20;99.90
21544;DHT22;10933;50.754;11.508;2022-07-29T05:34:42;15.10;99.90
21544;DHT22;10933;50.754;11.508;2022-07-29T05:37:07;15.00;99.90
21544;DHT22;10933;50.754;11.508;2022-07-29T05:39:33;15.00;99.90
21544;DHT22;10933;50.754;11.508;2022-07-29T05:41:59;15.10;99.90
21544;DHT22;10933;50.754;11.508;2022-07-29T05:44:25;15.20;99.90
21544;DHT22;10933;50.754;11.508;2022-07-29T05:46:50;15.40;99.90
21544;DHT22;10933;50.754;11.508;2022-07-29T05:49:16;15.70;99.90
21544;DHT22;10933;50.754;11.508;2022-07-29T05:51:42;16.20;99.90
21544;DHT22;10933;50.754;11.508;2022-07-29T05:54:08;17.10;99.90
21544;DHT22;10933;50.754;11.508;2022-07-29T05:56:36;18.00;99.90
21544;DHT22;10933;50.754;11.508;2022-07-29T05:59:07;18.50;99.90
21544;DHT22;10933;50.754;11.508;2022-07-29T06:01:33;18.00;99.90
21544;DHT22;10933;50.754;11.508;2022-07-29T06:03:59;18.10;99.90
21544;DHT22;10933;50.754;11.508;2022-07-29T06:06:25;17.80;99.90
21544;DHT22;10933;50.754;11.508;2022-07-29T06:08:50;19.60;99.90
21544;DHT22;10933;50.754;11.508;2022-07-29T06:11:16;19.50;99.90
21544;DHT22;10933;50.754;11.508;2022-07-29T06:13:42;19.80;99.90
21544;DHT22;10933;50.754;11.508;2022-07-29T06:16:07;20.90;99.90
21544;DHT22;10933;50.754;11.508;2022-07-29T06:18:33;21.90;99.90
21544;DHT22;10933;50.754;11.508;2022-07-29T06:20:59;21.90;98.50
21544;DHT22;10933;50.754;11.508;2022-07-29T06:23:25;21.80;99.60
21544;DHT22;10933;50.754;11.508;2022-07-29T06:25:51;20.30;99.90
21544;DHT22;10933;50.754;11.508;2022-07-29T06:28:16;21.40;99.90
21544;DHT22;10933;50.754;11.508;2022-07-29T06:30:42;20.80;98.20
21544;DHT22;10933;50.754;11.508;2022-07-29T06:33:08;20.40;99.00
21544;DHT22;10933;50.754;11.508;2022-07-29T06:35:34;21.20;98.80
21544;DHT22;10933;50.754;11.508;2022-07-29T06:38:03;20.40;99.30
21544;DHT22;10933;50.754;11.508;2022-07-29T06:40:29;20.80;99.90
21544;DHT22;10933;50.754;11.508;2022-07-29T06:43:14;21.30;99.80
21544;DHT22;10933;50.754;11.508;2022-07-29T06:45:40;21.10;99.80
21544;DHT22;10933;50.754;11.508;2022-07-29T06:48:06;21.30;97.60
21544;DHT22;10933;50.754;11.508;2022-07-29T06:50:32;22.30;98.30
21544;DHT22;10933;50.754;11.508;2022-07-29T06:52:57;20.80;97.90
21544;DHT22;10933;50.754;11.508;2022-07-29T06:55:23;23.20;97.00
21544;DHT22;10933;50.754;11.508;2022-07-29T06:57:49;23.00;97.00
21544;DHT22;10933;50.754;11.508;2022-07-29T07:00:15;24.40;93.50
21544;DHT22;10933;50.754;11.508;2022-07-29T07:02:41;21.00;96.70
21544;DHT22;10933;50.754;11.508;2022-07-29T07:05:07;21.00;97.20
21544;DHT22;10933;50.754;11.508;2022-07-29T07:07:33;20.60;97.80
21544;DHT22;10933;50.754;11.508;2022-07-29T07:09:59;20.40;98.60
21544;DHT22;10933;50.754;11.508;2022-07-29T07:12:24;20.40;99.70
